sensor_id;sensor_type;location;lat;lon;timestamp;temperature;humidity
42019;DHT22;27703;51.980;5.848;2022-08-19T00:02:02;21.10;96.10
42019;DHT22;27703;51.980;5.848;2022-08-19T00:04:31;21.10;96.20
42019;DHT22;27703;51.980;5.848;2022-08-19T00:06:58;21.10;96.20
42019;DHT22;27703;51.980;5.848;2022-08-19T00:09:25;21.20;96.20
42019;DHT22;27703;51.980;5.848;2022-08-19T00:11:52;21.20;96.20
42019;DHT22;27703;51.980;5.848;2022-08-19T00:14:18;21.10;96.30
42019;DHT22;27703;51.980;5.848;2022-08-19T00:16:46;21.10;96.30
42019;DHT22;27703;51.980;5.848;2022-08-19T00:19:13;21.10;96.30
42019;DHT22;27703;51.980;5.848;2022-08-19T00:21:39;21.00;96.30
42019;DHT22;27703;51.980;5.848;2022-08-19T00:24:10;21.00;96.30
42019;DHT22;27703;51.980;5.848;2022-08-19T00:26:36;21.00;96.30
42019;DHT22;27703;51.980;5.848;2022-08-19T00:29:03;21.00;96.30
42019;DHT22;27703;51.980;5.848;2022-08-19T00:31:29;21.00;96.30
42019;DHT22;27703;51.980;5.848;2022-08-19T00:33:56;20.90;96.30
42019;DHT22;27703;51.980;5.848;2022-08-19T00:36:22;20.90;96.30
42019;DHT22;27703;51.980;5.848;2022-08-19T00:38:47;20.90;96.40
42019;DHT22;27703;51.980;5.848;2022-08-19T00:41:16;20.90;96.40
42019;DHT22;27703;51.980;5.848;2022-08-19T00:43:42;20.90;96.50
42019;DHT22;27703;51.980;5.848;2022-08-19T00:46:09;20.90;96.50
42019;DHT22;27703;51.980;5.848;2022-08-19T00:48:35;20.90;96.50
42019;DHT22;27703;51.980;5.848;2022-08-19T00:51:01;20.90;96.60
42019;DHT22;27703;51.980;5.848;2022-08-19T00:53:28;20.80;96.50
42019;DHT22;27703;51.980;5.848;2022-08-19T00:55:58;20.80;96.50
42019;DHT22;27703;51.980;5.848;2022-08-19T00:58:29;20.80;96.60
42019;DHT22;27703;51.980;5.848;2022-08-19T01:00:55;20.70;96.60
42019;DHT22;27703;51.980;5.848;2022-08-19T01:03:21;20.70;96.70
42019;DHT22;27703;51.980;5.848;2022-08-19T01:05:49;20.70;96.70
42019;DHT22;27703;51.980;5.848;2022-08-19T01:08:17;20.70;96.70
42019;DHT22;27703;51.980;5.848;2022-08-19T01:10:50;20.70;96.60
42019;DHT22;27703;51.980;5.848;2022-08-19T01:13:22;20.70;96.70
42019;DHT22;27703;51.980;5.848;2022-08-19T01:15:52;20.70;96.70
42019;DHT22;27703;51.980;5.848;2022-08-19T01:18:20;20.70;96.70
42019;DHT22;27703;51.980;5.848;2022-08-19T01:20:47;20.70;96.80
42019;DHT22;27703;51.980;5.848;2022-08-19T01:23:13;20.70;96.80
42019;DHT22;27703;51.980;5.848;2022-08-19T01:25:47;20.70;96.90
42019;DHT22;27703;51.980;5.848;2022-08-19T01:28:21;20.70;96.90
42019;DHT22;27703;51.980;5.848;2022-08-19T01:30:47;20.60;97.00
42019;DHT22;27703;51.980;5.848;2022-08-19T01:33:14;20.60;97.00
42019;DHT22;27703;51.980;5.848;2022-08-19T01:35:40;20.60;97.10
42019;DHT22;27703;51.980;5.848;2022-08-19T01:38:09;20.60;97.10
42019;DHT22;27703;51.980;5.848;2022-08-19T01:40:37;20.60;97.10
42019;DHT22;27703;51.980;5.848;2022-08-19T01:43:03;20.60;97.10
42019;DHT22;27703;51.980;5.848;2022-08-19T01:45:32;20.50;97.20
42019;DHT22;27703;51.980;5.848;2022-08-19T01:47:59;20.60;97.20
42019;DHT22;27703;51.980;5.848;2022-08-19T01:50:25;20.60;97.20
42019;DHT22;27703;51.980;5.848;2022-08-19T01:52:51;20.60;97.20
42019;DHT22;27703;51.980;5.848;2022-08-19T01:55:20;20.60;97.20
42019;DHT22;27703;51.980;5.848;2022-08-19T01:57:52;20.60;97.20
42019;DHT22;27703;51.980;5.848;2022-08-19T02:00:22;20.60;97.20
42019;DHT22;27703;51.980;5.848;2022-08-19T02:02:48;20.60;97.20
42019;DHT22;27703;51.980;5.848;2022-08-19T02:05:13;20.60;97.30
42019;DHT22;27703;51.980;5.848;2022-08-19T02:07:40;20.60;97.30
42019;DHT22;27703;51.980;5.848;2022-08-19T02:10:20;20.60;97.20
42019;DHT22;27703;51.980;5.848;2022-08-19T02:12:47;20.70;97.20
42019;DHT22;27703;51.980;5.848;2022-08-19T02:15:14;20.60;97.20
42019;DHT22;27703;51.980;5.848;2022-08-19T02:17:41;20.70;97.20
42019;DHT22;27703;51.980;5.848;2022-08-19T02:20:08;20.70;97.30
42019;DHT22;27703;51.980;5.848;2022-08-19T02:22:33;20.70;97.30
42019;DHT22;27703;51.980;5.848;2022-08-19T02:25:01;20.70;97.30
42019;DHT22;27703;51.980;5.848;2022-08-19T02:27:26;20.70;97.30
42019;DHT22;27703;51.980;5.848;2022-08-19T02:29:52;20.70;97.30
42019;DHT22;27703;51.980;5.848;2022-08-19T02:32:18;20.70;97.30
42019;DHT22;27703;51.980;5.848;2022-08-19T02:34:46;20.60;97.40
42019;DHT22;27703;51.980;5.848;2022-08-19T02:37:12;20.60;97.40
42019;DHT22;27703;51.980;5.848;2022-08-19T02:39:56;20.50;97.50
42019;DHT22;27703;51.980;5.848;2022-08-19T02:42:22;20.50;97.50
42019;DHT22;27703;51.980;5.848;2022-08-19T02:44:48;20.50;97.60
42019;DHT22;27703;51.980;5.848;2022-08-19T02:47:13;20.40;97.60
42019;DHT22;27703;51.980;5.848;2022-08-19T02:49:40;20.40;97.60
42019;DHT22;27703;51.980;5.848;2022-08-19T02:52:06;20.40;97.50
42019;DHT22;27703;51.980;5.848;2022-08-19T02:54:31;20.40;97.60
42019;DHT22;27703;51.980;5.848;2022-08-19T02:56:57;20.30;97.60
42019;DHT22;27703;51.980;5.848;2022-08-19T02:59:23;20.30;97.60
42019;DHT22;27703;51.980;5.848;2022-08-19T03:01:51;20.30;97.60
42019;DHT22;27703;51.980;5.848;2022-08-19T03:04:16;20.20;97.70
42019;DHT22;27703;51.980;5.848;2022-08-19T03:06:44;20.10;97.70
42019;DHT22;27703;51.980;5.848;2022-08-19T03:09:10;20.00;97.80
42019;DHT22;27703;51.980;5.848;2022-08-19T03:11:37;19.90;97.90
42019;DHT22;27703;51.980;5.848;2022-08-19T03:14:04;19.90;98.00
42019;DHT22;27703;51.980;5.848;2022-08-19T03:16:39;19.90;97.90
42019;DHT22;27703;51.980;5.848;2022-08-19T03:19:05;19.90;98.00
42019;DHT22;27703;51.980;5.848;2022-08-19T03:21:32;19.90;98.00
42019;DHT22;27703;51.980;5.848;2022-08-19T03:24:00;19.80;98.00
42019;DHT22;27703;51.980;5.848;2022-08-19T03:26:26;19.90;98.00
42019;DHT22;27703;51.980;5.848;2022-08-19T03:28:52;19.80;97.90
42019;DHT22;27703;51.980;5.848;2022-08-19T03:31:20;19.80;97.80
42019;DHT22;27703;51.980;5.848;2022-08-19T03:33:48;19.80;97.80
42019;DHT22;27703;51.980;5.848;2022-08-19T03:36:17;19.80;97.80
42019;DHT22;27703;51.980;5.848;2022-08-19T03:38:45;19.90;97.80
42019;DHT22;27703;51.980;5.848;2022-08-19T03:41:20;19.80;97.80
42019;DHT22;27703;51.980;5.848;2022-08-19T03:43:47;19.80;97.90
42019;DHT22;27703;51.980;5.848;2022-08-19T03:46:15;19.70;98.10
42019;DHT22;27703;51.980;5.848;2022-08-19T03:48:42;19.60;98.20
42019;DHT22;27703;51.980;5.848;2022-08-19T03:51:14;19.50;98.40
42019;DHT22;27703;51.980;5.848;2022-08-19T03:53:40;19.60;98.40
42019;DHT22;27703;51.980;5.848;2022-08-19T03:56:08;19.60;98.40
42019;DHT22;27703;51.980;5.848;2022-08-19T03:58:34;19.60;98.40
42019;DHT22;27703;51.980;5.848;2022-08-19T04:00:59;19.70;98.40
42019;DHT22;27703;51.980;5.848;2022-08-19T04:03:25;19.70;98.40
42019;DHT22;27703;51.980;5.848;2022-08-19T04:05:52;19.70;98.30
42019;DHT22;27703;51.980;5.848;2022-08-19T04:08:19;19.80;98.30
42019;DHT22;27703;51.980;5.848;2022-08-19T04:10:47;19.80;98.30
42019;DHT22;27703;51.980;5.848;2022-08-19T04:13:14;19.80;98.30
42019;DHT22;27703;51.980;5.848;2022-08-19T04:15:41;19.80;98.30
42019;DHT22;27703;51.980;5.848;2022-08-19T04:18:09;19.80;98.30
42019;DHT22;27703;51.980;5.848;2022-08-19T04:20:45;19.80;98.30
42019;DHT22;27703;51.980;5.848;2022-08-19T04:23:12;19.70;98.30
42019;DHT22;27703;51.980;5.848;2022-08-19T04:25:40;19.70;98.50
42019;DHT22;27703;51.980;5.848;2022-08-19T04:28:07;19.60;98.40
42019;DHT22;27703;51.980;5.848;2022-08-19T04:30:50;19.70;98.40
42019;DHT22;27703;51.980;5.848;2022-08-19T04:33:18;19.60;98.40
42019;DHT22;27703;51.980;5.848;2022-08-19T04:35:47;19.60;98.50
42019;DHT22;27703;51.980;5.848;2022-08-19T04:38:15;19.60;98.50
42019;DHT22;27703;51.980;5.848;2022-08-19T04:40:47;19.50;98.40
42019;DHT22;27703;51.980;5.848;2022-08-19T04:43:33;19.60;98.40
42019;DHT22;27703;51.980;5.848;2022-08-19T04:46:07;19.50;98.40
42019;DHT22;27703;51.980;5.848;2022-08-19T04:48:33;19.50;98.40
42019;DHT22;27703;51.980;5.848;2022-08-19T04:50:59;19.50;98.40
42019;DHT22;27703;51.980;5.848;2022-08-19T04:53:26;19.50;98.30
42019;DHT22;27703;51.980;5.848;2022-08-19T04:55:55;19.50;98.30
42019;DHT22;27703;51.980;5.848;2022-08-19T04:58:22;19.50;98.30
42019;DHT22;27703;51.980;5.848;2022-08-19T05:00:48;19.50;98.30
42019;DHT22;27703;51.980;5.848;2022-08-19T05:03:13;19.50;98.30
42019;DHT22;27703;51.980;5.848;2022-08-19T05:05:46;19.50;98.30
42019;DHT22;27703;51.980;5.848;2022-08-19T05:08:14;19.50;98.30
42019;DHT22;27703;51.980;5.848;2022-08-19T05:10:44;19.50;98.30
42019;DHT22;27703;51.980;5.848;2022-08-19T05:13:10;19.40;98.40
42019;DHT22;27703;51.980;5.848;2022-08-19T05:15:36;19.30;98.50
42019;DHT22;27703;51.980;5.848;2022-08-19T05:18:02;19.20;98.70
42019;DHT22;27703;51.980;5.848;2022-08-19T05:20:45;19.20;98.80
42019;DHT22;27703;51.980;5.848;2022-08-19T05:23:29;19.20;98.90
42019;DHT22;27703;51.980;5.848;2022-08-19T05:25:55;19.20;98.90
42019;DHT22;27703;51.980;5.848;2022-08-19T05:28:21;19.20;98.80
42019;DHT22;27703;51.980;5.848;2022-08-19T05:30:47;19.30;98.70
42019;DHT22;27703;51.980;5.848;2022-08-19T05:33:13;19.30;98.70
42019;DHT22;27703;51.980;5.848;2022-08-19T05:35:39;19.40;98.70
42019;DHT22;27703;51.980;5.848;2022-08-19T05:38:06;19.40;98.80
42019;DHT22;27703;51.980;5.848;2022-08-19T05:40:37;19.40;98.90
42019;DHT22;27703;51.980;5.848;2022-08-19T05:43:05;19.40;99.00
42019;DHT22;27703;51.980;5.848;2022-08-19T05:45:31;19.40;99.10
42019;DHT22;27703;51.980;5.848;2022-08-19T05:47:56;19.40;99.10
42019;DHT22;27703;51.980;5.848;2022-08-19T05:50:24;19.50;99.00
42019;DHT22;27703;51.980;5.848;2022-08-19T05:52:51;19.50;99.00
42019;DHT22;27703;51.980;5.848;2022-08-19T05:55:16;19.60;98.90
42019;DHT22;27703;51.980;5.848;2022-08-19T05:57:42;19.60;99.00
42019;DHT22;27703;51.980;5.848;2022-08-19T06:00:08;19.60;99.00
42019;DHT22;27703;51.980;5.848;2022-08-19T06:02:36;19.60;99.20
42019;DHT22;27703;51.980;5.848;2022-08-19T06:05:04;19.50;99.10
42019;DHT22;27703;51.980;5.848;2022-08-19T06:07:31;19.50;99.20
42019;DHT22;27703;51.980;5.848;2022-08-19T06:09:57;19.40;99.20
42019;DHT22;27703;51.980;5.848;2022-08-19T06:12:22;19.30;99.30
42019;DHT22;27703;51.980;5.848;2022-08-19T06:14:57;19.40;99.50
42019;DHT22;27703;51.980;5.848;2022-08-19T06:17:22;19.40;99.50
42019;DHT22;27703;51.980;5.848;2022-08-19T06:19:50;19.40;99.40
42019;DHT22;27703;51.980;5.848;2022-08-19T06:22:16;19.50;99.50
42019;DHT22;27703;51.980;5.848;2022-08-19T06:24:42;19.50;99.60
42019;DHT22;27703;51.980;5.848;2022-08-19T06:27:07;19.50;99.70
42019;DHT22;27703;51.980;5.848;2022-08-19T06:29:33;19.50;99.70
42019;DHT22;27703;51.980;5.848;2022-08-19T06:32:02;19.60;99.70
42019;DHT22;27703;51.980;5.848;2022-08-19T06:34:30;19.70;99.80
42019;DHT22;27703;51.980;5.848;2022-08-19T06:36:57;19.70;99.80
42019;DHT22;27703;51.980;5.848;2022-08-19T06:39:28;19.70;99.90
42019;DHT22;27703;51.980;5.848;2022-08-19T06:41:56;19.70;99.90
42019;DHT22;27703;51.980;5.848;2022-08-19T06:44:24;19.70;99.90
42019;DHT22;27703;51.980;5.848;2022-08-19T06:46:52;19.70;99.90
42019;DHT22;27703;51.980;5.848;2022-08-19T06:49:18;19.70;99.90
42019;DHT22;27703;51.980;5.848;2022-08-19T06:51:45;19.70;99.90
42019;DHT22;27703;51.980;5.848;2022-08-19T06:54:13;19.70;99.90
42019;DHT22;27703;51.980;5.848;2022-08-19T06:56:39;19.70;99.90
42019;DHT22;27703;51.980;5.848;2022-08-19T06:59:08;19.70;99.90
42019;DHT22;27703;51.980;5.848;2022-08-19T07:01:39;19.70;99.90
42019;DHT22;27703;51.980;5.848;2022-08-19T07:04:08;19.80;99.90
42019;DHT22;27703;51.980;5.848;2022-08-19T07:06:34;19.80;99.90
42019;DHT22;27703;51.980;5.848;2022-08-19T07:09:01;19.80;99.90
42019;DHT22;27703;51.980;5.848;2022-08-19T07:11:26;19.80;99.90
42019;DHT22;27703;51.980;5.848;2022-08-19T07:13:52;19.80;99.90
42019;DHT22;27703;51.980;5.848;2022-08-19T07:16:19;19.80;99.90
42019;DHT22;27703;51.980;5.848;2022-08-19T07:18:46;19.90;99.90
42019;DHT22;27703;51.980;5.848;2022-08-19T07:21:18;20.00;99.90
42019;DHT22;27703;51.980;5.848;2022-08-19T07:23:45;20.00;99.90
42019;DHT22;27703;51.980;5.848;2022-08-19T07:26:15;20.00;99.90
42019;DHT22;27703;51.980;5.848;2022-08-19T07:28:42;20.10;99.90
42019;DHT22;27703;51.980;5.848;2022-08-19T07:31:11;20.10;99.90
42019;DHT22;27703;51.980;5.848;2022-08-19T07:33:38;20.20;99.90
42019;DHT22;27703;51.980;5.848;2022-08-19T07:36:05;20.20;99.90
42019;DHT22;27703;51.980;5.848;2022-08-19T07:38:32;20.20;99.90
42019;DHT22;27703;51.980;5.848;2022-08-19T07:40:58;20.30;99.90
42019;DHT22;27703;51.980;5.848;2022-08-19T07:43:24;20.30;99.90
42019;DHT22;27703;51.980;5.848;2022-08-19T07:45:52;20.40;99.90
42019;DHT22;27703;51.980;5.848;2022-08-19T07:48:18;20.30;99.90
42019;DHT22;27703;51.980;5.848;2022-08-19T07:50:44;20.30;99.90
42019;DHT22;27703;51.980;5.848;2022-08-19T07:53:09;20.30;99.90
42019;DHT22;27703;51.980;5.848;2022-08-19T07:55:37;20.20;99.90
42019;DHT22;27703;51.980;5.848;2022-08-19T07:58:02;20.30;99.90
42019;DHT22;27703;51.980;5.848;2022-08-19T08:00:30;20.40;99.90
42019;DHT22;27703;51.980;5.848;2022-08-19T08:02:55;20.40;99.90
42019;DHT22;27703;51.980;5.848;2022-08-19T08:05:22;20.50;99.90
42019;DHT22;27703;51.980;5.848;2022-08-19T08:08:06;20.50;99.90
42019;DHT22;27703;51.980;5.848;2022-08-19T08:11:07;20.40;99.90
42019;DHT22;27703;51.980;5.848;2022-08-19T08:13:32;20.40;99.90
42019;DHT22;27703;51.980;5.848;2022-08-19T08:16:01;20.40;99.90
42019;DHT22;27703;51.980;5.848;2022-08-19T08:18:27;20.30;99.90
42019;DHT22;27703;51.980;5.848;2022-08-19T08:20:53;20.20;99.90
42019;DHT22;27703;51.980;5.848;2022-08-19T08:23:18;20.30;99.90
42019;DHT22;27703;51.980;5.848;2022-08-19T08:25:56;20.50;99.90
42019;DHT22;27703;51.980;5.848;2022-08-19T08:28:23;20.70;99.90
42019;DHT22;27703;51.980;5.848;2022-08-19T08:30:50;20.80;99.90
42019;DHT22;27703;51.980;5.848;2022-08-19T08:33:21;20.90;99.90
42019;DHT22;27703;51.980;5.848;2022-08-19T08:35:47;21.10;99.80
42019;DHT22;27703;51.980;5.848;2022-08-19T08:38:14;21.20;99.70
42019;DHT22;27703;51.980;5.848;2022-08-19T08:40:53;21.40;99.40
42019;DHT22;27703;51.980;5.848;2022-08-19T08:43:35;21.60;99.10
42019;DHT22;27703;51.980;5.848;2022-08-19T08:46:07;21.80;98.70
42019;DHT22;27703;51.980;5.848;2022-08-19T08:51:10;22.00;98.00
42019;DHT22;27703;51.980;5.848;2022-08-19T08:53:36;22.10;97.70
42019;DHT22;27703;51.980;5.848;2022-08-19T08:56:04;22.20;97.50
42019;DHT22;27703;51.980;5.848;2022-08-19T08:58:41;22.30;97.80
42019;DHT22;27703;51.980;5.848;2022-08-19T09:01:12;22.40;97.00
42019;DHT22;27703;51.980;5.848;2022-08-19T09:03:39;22.30;97.00
42019;DHT22;27703;51.980;5.848;2022-08-19T09:06:23;22.40;97.00
42019;DHT22;27703;51.980;5.848;2022-08-19T09:09:17;22.50;96.90
42019;DHT22;27703;51.980;5.848;2022-08-19T09:14:32;22.70;96.60
42019;DHT22;27703;51.980;5.848;2022-08-19T09:16:59;22.70;96.40
42019;DHT22;27703;51.980;5.848;2022-08-19T09:19:29;22.80;96.30
42019;DHT22;27703;51.980;5.848;2022-08-19T09:21:55;22.80;96.00
42019;DHT22;27703;51.980;5.848;2022-08-19T09:24:20;22.80;95.90
42019;DHT22;27703;51.980;5.848;2022-08-19T09:26:46;22.80;95.90
42019;DHT22;27703;51.980;5.848;2022-08-19T09:29:12;22.90;96.10
42019;DHT22;27703;51.980;5.848;2022-08-19T09:31:38;23.10;95.90
42019;DHT22;27703;51.980;5.848;2022-08-19T09:34:03;23.20;96.10
42019;DHT22;27703;51.980;5.848;2022-08-19T09:36:30;23.30;95.90
42019;DHT22;27703;51.980;5.848;2022-08-19T09:39:03;23.30;96.00
42019;DHT22;27703;51.980;5.848;2022-08-19T09:41:29;23.20;95.90
42019;DHT22;27703;51.980;5.848;2022-08-19T09:43:56;23.20;95.70
42019;DHT22;27703;51.980;5.848;2022-08-19T09:46:24;23.10;95.60
42019;DHT22;27703;51.980;5.848;2022-08-19T09:48:51;23.20;95.70
42019;DHT22;27703;51.980;5.848;2022-08-19T09:51:20;23.20;95.40
42019;DHT22;27703;51.980;5.848;2022-08-19T09:53:47;23.30;95.30
42019;DHT22;27703;51.980;5.848;2022-08-19T09:56:16;23.30;95.10
42019;DHT22;27703;51.980;5.848;2022-08-19T09:58:42;23.30;95.20
42019;DHT22;27703;51.980;5.848;2022-08-19T10:01:08;23.30;95.10
42019;DHT22;27703;51.980;5.848;2022-08-19T10:03:35;23.30;95.00
42019;DHT22;27703;51.980;5.848;2022-08-19T10:06:03;23.20;94.70
42019;DHT22;27703;51.980;5.848;2022-08-19T10:08:32;23.20;94.50
42019;DHT22;27703;51.980;5.848;2022-08-19T10:10:59;23.30;94.50
42019;DHT22;27703;51.980;5.848;2022-08-19T10:13:27;23.30;94.50
42019;DHT22;27703;51.980;5.848;2022-08-19T10:15:55;23.30;94.10
42019;DHT22;27703;51.980;5.848;2022-08-19T10:18:23;23.30;94.20
42019;DHT22;27703;51.980;5.848;2022-08-19T10:20:50;23.40;94.10
42019;DHT22;27703;51.980;5.848;2022-08-19T10:23:16;23.50;93.90
42019;DHT22;27703;51.980;5.848;2022-08-19T10:25:42;23.60;93.80
42019;DHT22;27703;51.980;5.848;2022-08-19T10:28:09;23.70;93.50
42019;DHT22;27703;51.980;5.848;2022-08-19T10:30:38;23.70;93.20
42019;DHT22;27703;51.980;5.848;2022-08-19T10:33:04;23.70;93.30
42019;DHT22;27703;51.980;5.848;2022-08-19T10:35:30;23.70;93.30
42019;DHT22;27703;51.980;5.848;2022-08-19T10:37:56;23.60;93.30
42019;DHT22;27703;51.980;5.848;2022-08-19T10:40:26;23.50;93.50
42019;DHT22;27703;51.980;5.848;2022-08-19T10:42:52;23.60;93.30
42019;DHT22;27703;51.980;5.848;2022-08-19T10:45:18;23.60;93.50
42019;DHT22;27703;51.980;5.848;2022-08-19T10:47:43;23.70;93.30
42019;DHT22;27703;51.980;5.848;2022-08-19T10:50:09;23.90;93.10
42019;DHT22;27703;51.980;5.848;2022-08-19T10:52:54;23.70;93.10
42019;DHT22;27703;51.980;5.848;2022-08-19T10:55:22;23.80;93.10
42019;DHT22;27703;51.980;5.848;2022-08-19T10:58:15;24.00;93.00
42019;DHT22;27703;51.980;5.848;2022-08-19T11:00:42;24.10;92.80
42019;DHT22;27703;51.980;5.848;2022-08-19T11:03:08;24.20;92.60
42019;DHT22;27703;51.980;5.848;2022-08-19T11:05:34;24.30;92.50
42019;DHT22;27703;51.980;5.848;2022-08-19T11:08:00;24.40;92.20
42019;DHT22;27703;51.980;5.848;2022-08-19T11:10:26;24.40;92.50
42019;DHT22;27703;51.980;5.848;2022-08-19T11:12:51;24.50;92.20
42019;DHT22;27703;51.980;5.848;2022-08-19T11:15:20;24.60;92.10
42019;DHT22;27703;51.980;5.848;2022-08-19T11:17:46;24.70;91.90
42019;DHT22;27703;51.980;5.848;2022-08-19T11:20:12;24.80;91.70
42019;DHT22;27703;51.980;5.848;2022-08-19T11:22:39;24.80;91.20
42019;DHT22;27703;51.980;5.848;2022-08-19T11:25:05;24.80;91.00
42019;DHT22;27703;51.980;5.848;2022-08-19T11:27:31;24.80;91.00
42019;DHT22;27703;51.980;5.848;2022-08-19T11:29:56;24.80;91.10
42019;DHT22;27703;51.980;5.848;2022-08-19T11:32:22;24.90;91.00
42019;DHT22;27703;51.980;5.848;2022-08-19T11:34:48;25.00;91.20
42019;DHT22;27703;51.980;5.848;2022-08-19T11:37:13;25.10;91.00
42019;DHT22;27703;51.980;5.848;2022-08-19T11:39:39;25.10;90.80
42019;DHT22;27703;51.980;5.848;2022-08-19T11:42:06;25.20;90.60
42019;DHT22;27703;51.980;5.848;2022-08-19T11:44:52;25.30;90.30
42019;DHT22;27703;51.980;5.848;2022-08-19T11:47:18;25.50;90.20
42019;DHT22;27703;51.980;5.848;2022-08-19T11:49:45;25.50;90.10
42019;DHT22;27703;51.980;5.848;2022-08-19T11:52:11;25.50;90.10
42019;DHT22;27703;51.980;5.848;2022-08-19T11:54:36;25.30;90.30
42019;DHT22;27703;51.980;5.848;2022-08-19T11:57:03;25.40;90.30
42019;DHT22;27703;51.980;5.848;2022-08-19T11:59:29;25.50;90.30
42019;DHT22;27703;51.980;5.848;2022-08-19T12:01:55;25.60;90.20
42019;DHT22;27703;51.980;5.848;2022-08-19T12:04:21;25.80;90.00
42019;DHT22;27703;51.980;5.848;2022-08-19T12:06:47;26.00;89.80
42019;DHT22;27703;51.980;5.848;2022-08-19T12:09:12;26.10;89.70
42019;DHT22;27703;51.980;5.848;2022-08-19T12:11:40;26.30;89.30
42019;DHT22;27703;51.980;5.848;2022-08-19T12:14:08;26.30;89.10
42019;DHT22;27703;51.980;5.848;2022-08-19T12:16:34;26.30;88.60
42019;DHT22;27703;51.980;5.848;2022-08-19T12:19:03;26.20;88.70
42019;DHT22;27703;51.980;5.848;2022-08-19T12:21:30;26.10;88.70
42019;DHT22;27703;51.980;5.848;2022-08-19T12:23:57;26.10;88.80
42019;DHT22;27703;51.980;5.848;2022-08-19T12:26:25;26.10;88.90
42019;DHT22;27703;51.980;5.848;2022-08-19T12:28:51;26.00;89.10
42019;DHT22;27703;51.980;5.848;2022-08-19T12:31:17;25.90;89.40
42019;DHT22;27703;51.980;5.848;2022-08-19T12:33:43;26.00;89.70
42019;DHT22;27703;51.980;5.848;2022-08-19T12:36:11;26.10;89.80
42019;DHT22;27703;51.980;5.848;2022-08-19T12:38:37;26.10;89.80
42019;DHT22;27703;51.980;5.848;2022-08-19T12:41:04;26.30;89.60
42019;DHT22;27703;51.980;5.848;2022-08-19T12:43:35;26.40;89.40
42019;DHT22;27703;51.980;5.848;2022-08-19T12:46:05;26.50;89.10
42019;DHT22;27703;51.980;5.848;2022-08-19T12:48:32;26.70;89.00
42019;DHT22;27703;51.980;5.848;2022-08-19T12:50:58;26.80;87.80
42019;DHT22;27703;51.980;5.848;2022-08-19T12:53:24;26.60;88.00
42019;DHT22;27703;51.980;5.848;2022-08-19T12:55:57;26.60;88.20
42019;DHT22;27703;51.980;5.848;2022-08-19T12:58:23;26.70;88.20
42019;DHT22;27703;51.980;5.848;2022-08-19T13:00:48;26.80;88.20
42019;DHT22;27703;51.980;5.848;2022-08-19T13:03:14;27.00;87.60
42019;DHT22;27703;51.980;5.848;2022-08-19T13:05:40;27.10;87.50
42019;DHT22;27703;51.980;5.848;2022-08-19T13:08:06;27.10;87.50
42019;DHT22;27703;51.980;5.848;2022-08-19T13:10:33;27.10;87.90
42019;DHT22;27703;51.980;5.848;2022-08-19T13:13:01;27.30;87.50
42019;DHT22;27703;51.980;5.848;2022-08-19T13:15:28;27.30;86.70
42019;DHT22;27703;51.980;5.848;2022-08-19T13:17:57;27.30;86.70
42019;DHT22;27703;51.980;5.848;2022-08-19T13:20:23;27.30;86.40
42019;DHT22;27703;51.980;5.848;2022-08-19T13:22:48;27.20;86.60
42019;DHT22;27703;51.980;5.848;2022-08-19T13:25:16;27.30;87.20
42019;DHT22;27703;51.980;5.848;2022-08-19T13:27:43;27.40;86.30
42019;DHT22;27703;51.980;5.848;2022-08-19T13:30:11;27.40;85.60
42019;DHT22;27703;51.980;5.848;2022-08-19T13:32:55;27.50;85.70
42019;DHT22;27703;51.980;5.848;2022-08-19T13:38:09;27.50;85.10
42019;DHT22;27703;51.980;5.848;2022-08-19T13:40:35;27.40;85.40
42019;DHT22;27703;51.980;5.848;2022-08-19T13:43:03;27.50;85.30
42019;DHT22;27703;51.980;5.848;2022-08-19T13:45:30;27.30;85.30
42019;DHT22;27703;51.980;5.848;2022-08-19T13:47:59;27.30;85.40
42019;DHT22;27703;51.980;5.848;2022-08-19T13:50:30;27.10;85.90
42019;DHT22;27703;51.980;5.848;2022-08-19T13:53:00;27.20;86.00
42019;DHT22;27703;51.980;5.848;2022-08-19T13:55:26;27.30;85.70
42019;DHT22;27703;51.980;5.848;2022-08-19T13:57:57;27.30;85.30
42019;DHT22;27703;51.980;5.848;2022-08-19T14:00:25;27.20;85.80
42019;DHT22;27703;51.980;5.848;2022-08-19T14:02:53;27.10;86.20
42019;DHT22;27703;51.980;5.848;2022-08-19T14:05:19;27.00;86.30
42019;DHT22;27703;51.980;5.848;2022-08-19T14:07:45;26.90;86.50
42019;DHT22;27703;51.980;5.848;2022-08-19T14:10:12;26.90;87.00
42019;DHT22;27703;51.980;5.848;2022-08-19T14:12:39;26.70;87.30
42019;DHT22;27703;51.980;5.848;2022-08-19T14:15:06;26.50;87.80
42019;DHT22;27703;51.980;5.848;2022-08-19T14:17:32;26.30;88.20
42019;DHT22;27703;51.980;5.848;2022-08-19T14:20:01;26.10;89.00
42019;DHT22;27703;51.980;5.848;2022-08-19T14:22:30;26.00;89.50
42019;DHT22;27703;51.980;5.848;2022-08-19T14:24:57;25.90;89.70
42019;DHT22;27703;51.980;5.848;2022-08-19T14:27:22;26.00;89.80
42019;DHT22;27703;51.980;5.848;2022-08-19T14:29:50;26.10;89.90
42019;DHT22;27703;51.980;5.848;2022-08-19T14:32:16;26.00;89.90
42019;DHT22;27703;51.980;5.848;2022-08-19T14:34:41;26.00;90.00
42019;DHT22;27703;51.980;5.848;2022-08-19T14:37:07;25.90;90.10
42019;DHT22;27703;51.980;5.848;2022-08-19T14:39:34;25.80;90.10
42019;DHT22;27703;51.980;5.848;2022-08-19T14:42:00;25.70;90.20
42019;DHT22;27703;51.980;5.848;2022-08-19T14:44:26;25.70;90.40
42019;DHT22;27703;51.980;5.848;2022-08-19T14:46:52;25.70;90.50
42019;DHT22;27703;51.980;5.848;2022-08-19T14:49:18;25.60;90.60
42019;DHT22;27703;51.980;5.848;2022-08-19T14:51:44;25.40;90.90
42019;DHT22;27703;51.980;5.848;2022-08-19T14:54:12;25.30;90.80
42019;DHT22;27703;51.980;5.848;2022-08-19T14:56:40;25.20;90.90
42019;DHT22;27703;51.980;5.848;2022-08-19T14:59:06;25.20;91.00
42019;DHT22;27703;51.980;5.848;2022-08-19T15:01:31;25.20;91.20
42019;DHT22;27703;51.980;5.848;2022-08-19T15:03:57;25.20;91.30
42019;DHT22;27703;51.980;5.848;2022-08-19T15:06:24;25.20;91.20
42019;DHT22;27703;51.980;5.848;2022-08-19T15:08:50;25.20;91.10
42019;DHT22;27703;51.980;5.848;2022-08-19T15:11:18;25.20;91.20
42019;DHT22;27703;51.980;5.848;2022-08-19T15:13:46;25.20;91.20
42019;DHT22;27703;51.980;5.848;2022-08-19T15:16:12;25.20;91.30
42019;DHT22;27703;51.980;5.848;2022-08-19T15:18:40;25.20;91.40
42019;DHT22;27703;51.980;5.848;2022-08-19T15:21:07;25.20;91.40
42019;DHT22;27703;51.980;5.848;2022-08-19T15:23:34;25.20;91.50
42019;DHT22;27703;51.980;5.848;2022-08-19T15:26:01;25.30;91.50
42019;DHT22;27703;51.980;5.848;2022-08-19T15:28:27;25.30;91.60
42019;DHT22;27703;51.980;5.848;2022-08-19T15:30:53;25.30;91.80
42019;DHT22;27703;51.980;5.848;2022-08-19T15:33:19;25.20;91.90
42019;DHT22;27703;51.980;5.848;2022-08-19T15:35:46;25.20;92.20
42019;DHT22;27703;51.980;5.848;2022-08-19T15:38:12;25.00;92.40
42019;DHT22;27703;51.980;5.848;2022-08-19T15:40:39;24.90;92.70
42019;DHT22;27703;51.980;5.848;2022-08-19T15:43:06;24.80;92.80